PWSweather.com
Personal Weather Stations
Station Observations
KCOGRAND2
Redlands, Southcamp Road & Dakota Circle, Grand Junction, CO 81507

Redlands, Southcamp Road & Dakota CircleGrand Junction, CO 81507

Lat: 39.055, Lon: -108.637

Elevation: 4870

Station Type: RadioShack WX200

Latest ConditionsUpdated 4:03:50 PM MST Thursday, Dec 18, 2014
Currently Today's Max Today's Min Today's Average
Temperature 38.3°F3.5°C 39.7°F4.3°C 32.7°F0.4°C 34.9°F1.6°C
Dew Point 30.0°F-1.1°C 35.4°F1.9°C 30.0°F-1.1°C 32.7°F0.4°C
Winds 4.0 mph S6.4 kmh S 6.0 mph SW9.7 kmh SW - 1.8 mph 2.9 kmh
Wind Gusts 6.7 mph10.8 kmh 9.2 mph14.8 kmh - -
Humidity 72% 96% 72% 92%
Pressure 25.13 in851.0 mb 25.19 in853.0 mb 25.07 in849.0 mb -
Hour Temp Dew Point Humidity Winds Wind Gusts Pressure Precip Precip Rate Daily Precip Total
04:03 PM 38.3°F3.5°C 30.0°F-1.1°C 72% 4.0 mph S6.4 kmh S 6.7 mph10.8 kmh 25.13 in851.0 mb 0.00 in0.0 mm 0.00 in/hr0.0 mm/hr 0.00 in0.0 mm
03:58 PM 38.1°F3.4°C 30.2°F-1.0°C 73% 4.0 mph S6.4 kmh S 6.3 mph10.1 kmh 25.13 in851.0 mb 0.00 in0.0 mm 0.00 in/hr0.0 mm/hr 0.00 in0.0 mm
03:53 PM 38.3°F3.5°C 30.7°F-0.7°C 74% 4.0 mph SSE6.4 kmh SSE 6.7 mph10.8 kmh 25.13 in851.0 mb 0.00 in0.0 mm 0.00 in/hr0.0 mm/hr 0.00 in0.0 mm
03:48 PM 38.3°F3.5°C 31.1°F-0.5°C 75% 4.0 mph SE6.4 kmh SE 5.8 mph9.3 kmh 25.13 in851.0 mb 0.00 in0.0 mm 0.00 in/hr0.0 mm/hr 0.00 in0.0 mm
03:43 PM 38.3°F3.5°C 31.5°F-0.3°C 76% 3.0 mph SE4.8 kmh SE 5.8 mph9.3 kmh 25.13 in851.0 mb 0.00 in0.0 mm 0.00 in/hr0.0 mm/hr 0.00 in0.0 mm
03:38 PM 38.3°F3.5°C 31.8°F-0.1°C 77% 3.0 mph SE4.8 kmh SE 4.5 mph7.2 kmh 25.13 in851.0 mb 0.00 in0.0 mm 0.00 in/hr0.0 mm/hr 0.00 in0.0 mm
03:33 PM 38.3°F3.5°C 31.5°F-0.3°C 76% 4.0 mph SE6.4 kmh SE 4.5 mph7.2 kmh 25.13 in851.0 mb 0.00 in0.0 mm 0.00 in/hr0.0 mm/hr 0.00 in0.0 mm
03:28 PM 38.5°F3.6°C 31.6°F-0.2°C 76% 3.0 mph SE4.8 kmh SE 5.8 mph9.3 kmh 25.13 in851.0 mb 0.00 in0.0 mm 0.00 in/hr0.0 mm/hr 0.00 in0.0 mm
03:23 PM 38.7°F3.7°C 31.8°F-0.1°C 76% 2.0 mph SSE3.2 kmh SSE 4.5 mph7.2 kmh 25.13 in851.0 mb 0.00 in0.0 mm 0.00 in/hr0.0 mm/hr 0.00 in0.0 mm
03:18 PM 38.7°F3.7°C 31.8°F-0.1°C 76% 3.0 mph SSW4.8 kmh SSW 5.4 mph8.7 kmh 25.13 in851.0 mb 0.00 in0.0 mm 0.00 in/hr0.0 mm/hr 0.00 in0.0 mm
03:13 PM 38.7°F3.7°C 31.8°F-0.1°C 76% 3.0 mph SW4.8 kmh SW 4.5 mph7.2 kmh 25.13 in851.0 mb 0.00 in0.0 mm 0.00 in/hr0.0 mm/hr 0.00 in0.0 mm
03:08 PM 39.2°F4.0°C 32.5°F0.3°C 77% 2.0 mph SW3.2 kmh SW 4.0 mph6.4 kmh 25.13 in851.0 mb 0.00 in0.0 mm 0.00 in/hr0.0 mm/hr 0.00 in0.0 mm
03:03 PM 39.7°F4.3°C 34.2°F1.2°C 80% 2.0 mph SW3.2 kmh SW 5.4 mph8.7 kmh 25.13 in851.0 mb 0.00 in0.0 mm 0.00 in/hr0.0 mm/hr 0.00 in0.0 mm
02:58 PM 39.2°F4.0°C 34.2°F1.2°C 82% 2.0 mph SW3.2 kmh SW 4.0 mph6.4 kmh 25.13 in851.0 mb 0.00 in0.0 mm 0.00 in/hr0.0 mm/hr 0.00 in0.0 mm
02:53 PM 38.8°F3.8°C 34.2°F1.2°C 83% Calm Calm 4.0 mph6.4 kmh 25.13 in851.0 mb 0.00 in0.0 mm 0.00 in/hr0.0 mm/hr 0.00 in0.0 mm
02:48 PM 38.7°F3.7°C 34.2°F1.2°C 84% Calm Calm 2.7 mph4.3 kmh 25.13 in851.0 mb 0.00 in0.0 mm 0.00 in/hr0.0 mm/hr 0.00 in0.0 mm
02:43 PM 38.3°F3.5°C 34.2°F1.2°C 85% Calm Calm -- 25.13 in851.0 mb 0.00 in0.0 mm 0.00 in/hr0.0 mm/hr 0.00 in0.0 mm
02:38 PM 37.9°F3.3°C 33.8°F1.0°C 85% 1.0 mph SW1.6 kmh SW 4.0 mph6.4 kmh 25.13 in851.0 mb 0.00 in0.0 mm 0.00 in/hr0.0 mm/hr 0.00 in0.0 mm
02:33 PM 37.9°F3.3°C 33.8°F1.0°C 85% 1.0 mph SW1.6 kmh SW 4.5 mph7.2 kmh 25.13 in851.0 mb 0.00 in0.0 mm 0.00 in/hr0.0 mm/hr 0.00 in0.0 mm
02:28 PM 37.8°F3.2°C 34.0°F1.1°C 86% 1.0 mph SW1.6 kmh SW 3.1 mph5.0 kmh 25.13 in851.0 mb 0.00 in0.0 mm 0.00 in/hr0.0 mm/hr 0.00 in0.0 mm
02:23 PM 37.6°F3.1°C 33.4°F0.8°C 85% 2.0 mph SW3.2 kmh SW 4.0 mph6.4 kmh 25.13 in851.0 mb 0.00 in0.0 mm 0.00 in/hr0.0 mm/hr 0.00 in0.0 mm
02:18 PM 37.6°F3.1°C 33.8°F1.0°C 86% 3.0 mph SW4.8 kmh SW 5.4 mph8.7 kmh 25.13 in851.0 mb 0.00 in0.0 mm 0.00 in/hr0.0 mm/hr 0.00 in0.0 mm
02:13 PM 37.4°F3.0°C 33.6°F0.9°C 86% 3.0 mph SW4.8 kmh SW 4.9 mph7.9 kmh 25.13 in851.0 mb 0.00 in0.0 mm 0.00 in/hr0.0 mm/hr 0.00 in0.0 mm
02:08 PM 37.6°F3.1°C 34.0°F1.1°C 87% 2.0 mph SW3.2 kmh SW 4.9 mph7.9 kmh 25.13 in851.0 mb 0.00 in0.0 mm 0.00 in/hr0.0 mm/hr 0.00 in0.0 mm
02:03 PM 37.6°F3.1°C 34.0°F1.1°C 87% 2.0 mph SW3.2 kmh SW 4.5 mph7.2 kmh 25.13 in851.0 mb 0.00 in0.0 mm 0.00 in/hr0.0 mm/hr 0.00 in0.0 mm
01:58 PM 37.4°F3.0°C 34.0°F1.1°C 87% 3.0 mph SW4.8 kmh SW 5.4 mph8.7 kmh 25.13 in851.0 mb 0.00 in0.0 mm 0.00 in/hr0.0 mm/hr 0.00 in0.0 mm
01:53 PM 37.4°F3.0°C 34.0°F1.1°C 87% 3.0 mph SW4.8 kmh SW 4.5 mph7.2 kmh 25.13 in851.0 mb 0.00 in0.0 mm 0.00 in/hr0.0 mm/hr 0.00 in0.0 mm
01:48 PM 37.0°F2.8°C 33.6°F0.9°C 87% 3.0 mph SW4.8 kmh SW 5.4 mph8.7 kmh 25.13 in851.0 mb 0.00 in0.0 mm 0.00 in/hr0.0 mm/hr 0.00 in0.0 mm
01:43 PM 37.0°F2.8°C 33.6°F0.9°C 87% 2.0 mph SW3.2 kmh SW 4.0 mph6.4 kmh 25.13 in851.0 mb 0.00 in0.0 mm 0.00 in/hr0.0 mm/hr 0.00 in0.0 mm
01:38 PM 37.0°F2.8°C 33.8°F1.0°C 88% 3.0 mph WSW4.8 kmh WSW 4.0 mph6.4 kmh 25.13 in851.0 mb 0.00 in0.0 mm 0.00 in/hr0.0 mm/hr 0.00 in0.0 mm
01:33 PM 36.9°F2.7°C 33.6°F0.9°C 88% 4.0 mph WSW6.4 kmh WSW 6.3 mph10.1 kmh 25.13 in851.0 mb 0.00 in0.0 mm 0.00 in/hr0.0 mm/hr 0.00 in0.0 mm
01:28 PM 37.0°F2.8°C 33.8°F1.0°C 88% 4.0 mph WSW6.4 kmh WSW 5.8 mph9.3 kmh 25.13 in851.0 mb 0.00 in0.0 mm 0.00 in/hr0.0 mm/hr 0.00 in0.0 mm
01:23 PM 36.7°F2.6°C 33.4°F0.8°C 88% 4.0 mph WSW6.4 kmh WSW 6.9 mph11.1 kmh 25.13 in851.0 mb 0.00 in0.0 mm 0.00 in/hr0.0 mm/hr 0.00 in0.0 mm
01:18 PM 36.5°F2.5°C 33.3°F0.7°C 88% 5.0 mph WSW8.0 kmh WSW 6.9 mph11.1 kmh 25.13 in851.0 mb 0.00 in0.0 mm 0.00 in/hr0.0 mm/hr 0.00 in0.0 mm
01:13 PM 36.7°F2.6°C 33.4°F0.8°C 88% 5.0 mph WSW8.0 kmh WSW 7.4 mph11.9 kmh 25.13 in851.0 mb 0.00 in0.0 mm 0.00 in/hr0.0 mm/hr 0.00 in0.0 mm
01:08 PM 36.7°F2.6°C 33.8°F1.0°C 89% 5.0 mph WSW8.0 kmh WSW 6.9 mph11.1 kmh 25.13 in851.0 mb 0.00 in0.0 mm 0.00 in/hr0.0 mm/hr 0.00 in0.0 mm
01:03 PM 36.3°F2.4°C 33.4°F0.8°C 89% 4.0 mph WSW6.4 kmh WSW 6.9 mph11.1 kmh 25.13 in851.0 mb 0.00 in0.0 mm 0.00 in/hr0.0 mm/hr 0.00 in0.0 mm
12:58 PM 36.5°F2.5°C 33.8°F1.0°C 90% 4.0 mph WSW6.4 kmh WSW 6.9 mph11.1 kmh 25.13 in851.0 mb 0.00 in0.0 mm 0.00 in/hr0.0 mm/hr 0.00 in0.0 mm
12:53 PM 36.3°F2.4°C 33.6°F0.9°C 90% 5.0 mph WSW8.0 kmh WSW 7.4 mph11.9 kmh 25.13 in851.0 mb 0.00 in0.0 mm 0.00 in/hr0.0 mm/hr 0.00 in0.0 mm
12:48 PM 36.3°F2.4°C 33.6°F0.9°C 90% 6.0 mph WSW9.7 kmh WSW 8.7 mph14.0 kmh 25.13 in851.0 mb 0.00 in0.0 mm 0.00 in/hr0.0 mm/hr 0.00 in0.0 mm
12:43 PM 36.7°F2.6°C 34.3°F1.3°C 91% 6.0 mph WSW9.7 kmh WSW 7.8 mph12.6 kmh 25.13 in851.0 mb 0.00 in0.0 mm 0.00 in/hr0.0 mm/hr 0.00 in0.0 mm
12:38 PM 36.5°F2.5°C 34.3°F1.3°C 92% 6.0 mph WSW9.7 kmh WSW 8.3 mph13.4 kmh 25.13 in851.0 mb 0.00 in0.0 mm 0.00 in/hr0.0 mm/hr 0.00 in0.0 mm
12:33 PM 36.3°F2.4°C 34.7°F1.5°C 94% 6.0 mph WSW9.7 kmh WSW 8.3 mph13.4 kmh 25.13 in851.0 mb 0.00 in0.0 mm 0.00 in/hr0.0 mm/hr 0.00 in0.0 mm
12:28 PM 36.3°F2.4°C 35.1°F1.7°C 95% 4.0 mph WSW6.4 kmh WSW 7.8 mph12.6 kmh 25.13 in851.0 mb 0.00 in0.0 mm 0.00 in/hr0.0 mm/hr 0.00 in0.0 mm
12:23 PM 36.7°F2.6°C 35.4°F1.9°C 95% 2.0 mph WSW3.2 kmh WSW 6.7 mph10.8 kmh 25.16 in852.0 mb 0.00 in0.0 mm 0.00 in/hr0.0 mm/hr 0.00 in0.0 mm
12:18 PM 36.5°F2.5°C 35.4°F1.9°C 96% Calm Calm 3.6 mph5.8 kmh 25.16 in852.0 mb 0.00 in0.0 mm 0.00 in/hr0.0 mm/hr 0.00 in0.0 mm
12:13 PM 36.3°F2.4°C 35.2°F1.8°C 96% 1.0 mph WSW1.6 kmh WSW 2.7 mph4.3 kmh 25.16 in852.0 mb 0.00 in0.0 mm 0.00 in/hr0.0 mm/hr 0.00 in0.0 mm
12:08 PM 36.0°F2.2°C 34.9°F1.6°C 96% 1.0 mph WSW1.6 kmh WSW 4.5 mph7.2 kmh 25.16 in852.0 mb 0.00 in0.0 mm 0.00 in/hr0.0 mm/hr 0.00 in0.0 mm
12:03 PM 36.5°F2.5°C 35.4°F1.9°C 96% 1.0 mph WSW1.6 kmh WSW 2.7 mph4.3 kmh 25.16 in852.0 mb 0.00 in0.0 mm 0.00 in/hr0.0 mm/hr 0.00 in0.0 mm
11:58 AM 36.5°F2.5°C 35.4°F1.9°C 96% 2.0 mph WSW3.2 kmh WSW 4.5 mph7.2 kmh 25.16 in852.0 mb 0.00 in0.0 mm 0.00 in/hr0.0 mm/hr 0.00 in0.0 mm
11:53 AM 36.1°F2.3°C 35.1°F1.7°C 96% 3.0 mph WSW4.8 kmh WSW 4.9 mph7.9 kmh 25.16 in852.0 mb 0.00 in0.0 mm 0.00 in/hr0.0 mm/hr 0.00 in0.0 mm
11:48 AM 36.3°F2.4°C 35.1°F1.7°C 95% 3.0 mph WSW4.8 kmh WSW 5.8 mph9.3 kmh 25.16 in852.0 mb 0.00 in0.0 mm 0.00 in/hr0.0 mm/hr 0.00 in0.0 mm
11:43 AM 36.0°F2.2°C 34.7°F1.5°C 95% 4.0 mph WSW6.4 kmh WSW 5.4 mph8.7 kmh 25.16 in852.0 mb 0.00 in0.0 mm 0.00 in/hr0.0 mm/hr 0.00 in0.0 mm
11:38 AM 35.8°F2.1°C 34.5°F1.4°C 95% 4.0 mph WSW6.4 kmh WSW 5.8 mph9.3 kmh 25.16 in852.0 mb 0.00 in0.0 mm 0.00 in/hr0.0 mm/hr 0.00 in0.0 mm
11:33 AM 35.8°F2.1°C 34.5°F1.4°C 95% 2.0 mph WSW3.2 kmh WSW 5.8 mph9.3 kmh 25.16 in852.0 mb 0.00 in0.0 mm 0.00 in/hr0.0 mm/hr 0.00 in0.0 mm
11:28 AM 35.8°F2.1°C 34.5°F1.4°C 95% 2.0 mph WSW3.2 kmh WSW 3.6 mph5.8 kmh 25.16 in852.0 mb 0.00 in0.0 mm 0.00 in/hr0.0 mm/hr 0.00 in0.0 mm
11:23 AM 35.8°F2.1°C 34.5°F1.4°C 95% 2.0 mph WSW3.2 kmh WSW 5.4 mph8.7 kmh 25.16 in852.0 mb 0.00 in0.0 mm 0.00 in/hr0.0 mm/hr 0.00 in0.0 mm
11:18 AM 35.8°F2.1°C 34.5°F1.4°C 95% 1.0 mph WSW1.6 kmh WSW 4.0 mph6.4 kmh 25.16 in852.0 mb 0.00 in0.0 mm 0.00 in/hr0.0 mm/hr 0.00 in0.0 mm
11:13 AM 35.4°F1.9°C 34.2°F1.2°C 95% 1.0 mph WSW1.6 kmh WSW 3.1 mph5.0 kmh 25.16 in852.0 mb 0.00 in0.0 mm 0.00 in/hr0.0 mm/hr 0.00 in0.0 mm
11:08 AM 35.2°F1.8°C 34.0°F1.1°C 95% 2.0 mph WSW3.2 kmh WSW 5.4 mph8.7 kmh 25.16 in852.0 mb 0.00 in0.0 mm 0.00 in/hr0.0 mm/hr 0.00 in0.0 mm
11:03 AM 35.2°F1.8°C 34.0°F1.1°C 95% 3.0 mph WSW4.8 kmh WSW 4.9 mph7.9 kmh 25.16 in852.0 mb 0.00 in0.0 mm 0.00 in/hr0.0 mm/hr 0.00 in0.0 mm
10:58 AM 35.1°F1.7°C 33.8°F1.0°C 95% 4.0 mph WSW6.4 kmh WSW 4.9 mph7.9 kmh 25.16 in852.0 mb 0.00 in0.0 mm 0.00 in/hr0.0 mm/hr 0.00 in0.0 mm
10:53 AM 35.1°F1.7°C 33.8°F1.0°C 95% 4.0 mph WSW6.4 kmh WSW 5.4 mph8.7 kmh 25.16 in852.0 mb 0.00 in0.0 mm 0.00 in/hr0.0 mm/hr 0.00 in0.0 mm
10:48 AM 35.2°F1.8°C 34.0°F1.1°C 95% 4.0 mph WSW6.4 kmh WSW 5.4 mph8.7 kmh 25.16 in852.0 mb 0.00 in0.0 mm 0.00 in/hr0.0 mm/hr 0.00 in0.0 mm
10:43 AM 35.1°F1.7°C 33.4°F0.8°C 94% 3.0 mph WSW4.8 kmh WSW 5.4 mph8.7 kmh 25.16 in852.0 mb 0.00 in0.0 mm 0.00 in/hr0.0 mm/hr 0.00 in0.0 mm
10:38 AM 35.2°F1.8°C 33.6°F0.9°C 94% 2.0 mph WSW3.2 kmh WSW 5.4 mph8.7 kmh 25.19 in853.0 mb 0.00 in0.0 mm 0.00 in/hr0.0 mm/hr 0.00 in0.0 mm
10:33 AM 35.4°F1.9°C 33.8°F1.0°C 94% 2.0 mph WSW3.2 kmh WSW 3.6 mph5.8 kmh 25.19 in853.0 mb 0.00 in0.0 mm 0.00 in/hr0.0 mm/hr 0.00 in0.0 mm
10:28 AM 35.4°F1.9°C 33.8°F1.0°C 94% 2.0 mph WSW3.2 kmh WSW 4.0 mph6.4 kmh 25.19 in853.0 mb 0.00 in0.0 mm 0.00 in/hr0.0 mm/hr 0.00 in0.0 mm
10:23 AM 35.2°F1.8°C 33.6°F0.9°C 94% 3.0 mph WSW4.8 kmh WSW 4.5 mph7.2 kmh 25.16 in852.0 mb 0.00 in0.0 mm 0.00 in/hr0.0 mm/hr 0.00 in0.0 mm
10:18 AM 35.4°F1.9°C 33.8°F1.0°C 94% 2.0 mph WSW3.2 kmh WSW 4.0 mph6.4 kmh 25.16 in852.0 mb 0.00 in0.0 mm 0.00 in/hr0.0 mm/hr 0.00 in0.0 mm
10:13 AM 35.4°F1.9°C 33.8°F1.0°C 94% 1.0 mph WSW1.6 kmh WSW 3.6 mph5.8 kmh 25.16 in852.0 mb 0.00 in0.0 mm 0.00 in/hr0.0 mm/hr 0.00 in0.0 mm
10:08 AM 35.2°F1.8°C 33.4°F0.8°C 93% 2.0 mph WSW3.2 kmh WSW 4.0 mph6.4 kmh 25.16 in852.0 mb 0.00 in0.0 mm 0.00 in/hr0.0 mm/hr 0.00 in0.0 mm
10:03 AM 34.9°F1.6°C 33.1°F0.6°C 93% 2.0 mph WSW3.2 kmh WSW 4.5 mph7.2 kmh 25.16 in852.0 mb 0.00 in0.0 mm 0.00 in/hr0.0 mm/hr 0.00 in0.0 mm
09:58 AM 34.7°F1.5°C 32.9°F0.5°C 93% 2.0 mph WSW3.2 kmh WSW 4.0 mph6.4 kmh 25.16 in852.0 mb 0.00 in0.0 mm 0.00 in/hr0.0 mm/hr 0.00 in0.0 mm
09:53 AM 34.7°F1.5°C 32.9°F0.5°C 93% 2.0 mph WSW3.2 kmh WSW 4.9 mph7.9 kmh 25.16 in852.0 mb 0.00 in0.0 mm 0.00 in/hr0.0 mm/hr 0.00 in0.0 mm
09:48 AM 34.5°F1.4°C 32.7°F0.4°C 93% 2.0 mph WSW3.2 kmh WSW 4.5 mph7.2 kmh 25.16 in852.0 mb 0.00 in0.0 mm 0.00 in/hr0.0 mm/hr 0.00 in0.0 mm
09:43 AM 34.7°F1.5°C 32.9°F0.5°C 93% 2.0 mph WSW3.2 kmh WSW 4.9 mph7.9 kmh 25.16 in852.0 mb 0.00 in0.0 mm 0.00 in/hr0.0 mm/hr 0.00 in0.0 mm
09:38 AM 34.5°F1.4°C 32.7°F0.4°C 93% Calm Calm 3.6 mph5.8 kmh 25.16 in852.0 mb 0.00 in0.0 mm 0.00 in/hr0.0 mm/hr 0.00 in0.0 mm
09:33 AM 34.5°F1.4°C 32.7°F0.4°C 93% Calm Calm -- 25.16 in852.0 mb 0.00 in0.0 mm 0.00 in/hr0.0 mm/hr 0.00 in0.0 mm
09:28 AM 34.9°F1.6°C 32.7°F0.4°C 92% Calm Calm 3.1 mph5.0 kmh 25.16 in852.0 mb 0.00 in0.0 mm 0.00 in/hr0.0 mm/hr 0.00 in0.0 mm
09:23 AM 34.9°F1.6°C 32.7°F0.4°C 92% Calm Calm -- 25.16 in852.0 mb 0.00 in0.0 mm 0.00 in/hr0.0 mm/hr 0.00 in0.0 mm
09:18 AM 35.1°F1.7°C 32.9°F0.5°C 92% Calm Calm -- 25.16 in852.0 mb 0.00 in0.0 mm 0.00 in/hr0.0 mm/hr 0.00 in0.0 mm
09:13 AM 35.2°F1.8°C 33.1°F0.6°C 92% Calm Calm -- 25.16 in852.0 mb 0.00 in0.0 mm 0.00 in/hr0.0 mm/hr 0.00 in0.0 mm
09:08 AM 34.9°F1.6°C 32.7°F0.4°C 92% Calm Calm 2.7 mph4.3 kmh 25.16 in852.0 mb 0.00 in0.0 mm 0.00 in/hr0.0 mm/hr 0.00 in0.0 mm
09:03 AM 34.5°F1.4°C 32.7°F0.4°C 93% Calm Calm -- 25.16 in852.0 mb 0.00 in0.0 mm 0.00 in/hr0.0 mm/hr 0.00 in0.0 mm
08:58 AM 34.5°F1.4°C 32.7°F0.4°C 93% Calm Calm -- 25.16 in852.0 mb 0.00 in0.0 mm 0.00 in/hr0.0 mm/hr 0.00 in0.0 mm
08:53 AM 34.0°F1.1°C 32.2°F0.1°C 93% Calm Calm -- 25.13 in851.0 mb 0.00 in0.0 mm 0.00 in/hr0.0 mm/hr 0.00 in0.0 mm
08:48 AM 33.8°F1.0°C 32.0°F0.0°C 93% Calm Calm -- 25.13 in851.0 mb 0.00 in0.0 mm 0.00 in/hr0.0 mm/hr 0.00 in0.0 mm
08:43 AM 33.6°F0.9°C 31.8°F-0.1°C 93% Calm Calm -- 25.13 in851.0 mb 0.00 in0.0 mm 0.00 in/hr0.0 mm/hr 0.00 in0.0 mm
08:38 AM 33.4°F0.8°C 31.6°F-0.2°C 93% Calm Calm -- 25.13 in851.0 mb 0.00 in0.0 mm 0.00 in/hr0.0 mm/hr 0.00 in0.0 mm
08:33 AM 33.3°F0.7°C 31.5°F-0.3°C 93% Calm Calm -- 25.13 in851.0 mb 0.00 in0.0 mm 0.00 in/hr0.0 mm/hr 0.00 in0.0 mm
08:28 AM 33.3°F0.7°C 31.5°F-0.3°C 93% Calm Calm -- 25.13 in851.0 mb 0.00 in0.0 mm 0.00 in/hr0.0 mm/hr 0.00 in0.0 mm
08:23 AM 33.3°F0.7°C 31.5°F-0.3°C 93% Calm Calm -- 25.13 in851.0 mb 0.00 in0.0 mm 0.00 in/hr0.0 mm/hr 0.00 in0.0 mm
08:18 AM 33.3°F0.7°C 31.5°F-0.3°C 93% Calm Calm -- 25.13 in851.0 mb 0.00 in0.0 mm 0.00 in/hr0.0 mm/hr 0.00 in0.0 mm
08:13 AM 33.3°F0.7°C 31.5°F-0.3°C 93% Calm Calm -- 25.13 in851.0 mb 0.00 in0.0 mm 0.00 in/hr0.0 mm/hr 0.00 in0.0 mm
08:07 AM 33.3°F0.7°C 31.5°F-0.3°C 93% Calm Calm 3.1 mph5.0 kmh 25.13 in851.0 mb 0.00 in0.0 mm 0.00 in/hr0.0 mm/hr 0.00 in0.0 mm
08:02 AM 33.3°F0.7°C 31.5°F-0.3°C 93% Calm Calm 2.7 mph4.3 kmh 25.13 in851.0 mb 0.00 in0.0 mm 0.00 in/hr0.0 mm/hr 0.00 in0.0 mm
07:57 AM 33.3°F0.7°C 31.5°F-0.3°C 93% Calm Calm 2.7 mph4.3 kmh 25.13 in851.0 mb 0.00 in0.0 mm 0.00 in/hr0.0 mm/hr 0.00 in0.0 mm
07:52 AM 33.3°F0.7°C 31.5°F-0.3°C 93% Calm Calm -- 25.13 in851.0 mb 0.00 in0.0 mm 0.00 in/hr0.0 mm/hr 0.00 in0.0 mm
07:47 AM 33.3°F0.7°C 31.5°F-0.3°C 93% Calm Calm -- 25.13 in851.0 mb 0.00 in0.0 mm 0.00 in/hr0.0 mm/hr 0.00 in0.0 mm
07:42 AM 33.3°F0.7°C 31.5°F-0.3°C 93% Calm Calm -- 25.13 in851.0 mb 0.00 in0.0 mm 0.00 in/hr0.0 mm/hr 0.00 in0.0 mm
07:37 AM 33.3°F0.7°C 31.5°F-0.3°C 93% Calm Calm 2.7 mph4.3 kmh 25.13 in851.0 mb 0.00 in0.0 mm 0.00 in/hr0.0 mm/hr 0.00 in0.0 mm
07:32 AM 33.3°F0.7°C 31.5°F-0.3°C 93% Calm Calm 3.1 mph5.0 kmh 25.13 in851.0 mb 0.00 in0.0 mm 0.00 in/hr0.0 mm/hr 0.00 in0.0 mm
07:27 AM 33.3°F0.7°C 31.5°F-0.3°C 93% Calm Calm 2.7 mph4.3 kmh 25.13 in851.0 mb 0.00 in0.0 mm 0.00 in/hr0.0 mm/hr 0.00 in0.0 mm
07:22 AM 33.1°F0.6°C 31.3°F-0.4°C 93% Calm Calm -- 25.13 in851.0 mb 0.00 in0.0 mm 0.00 in/hr0.0 mm/hr 0.00 in0.0 mm
07:17 AM 33.1°F0.6°C 31.3°F-0.4°C 93% Calm Calm -- 25.13 in851.0 mb 0.00 in0.0 mm 0.00 in/hr0.0 mm/hr 0.00 in0.0 mm
07:12 AM 33.1°F0.6°C 31.3°F-0.4°C 93% Calm Calm 3.1 mph5.0 kmh 25.13 in851.0 mb 0.00 in0.0 mm 0.00 in/hr0.0 mm/hr 0.00 in0.0 mm
07:07 AM 33.1°F0.6°C 31.3°F-0.4°C 93% Calm Calm 2.7 mph4.3 kmh 25.13 in851.0 mb 0.00 in0.0 mm 0.00 in/hr0.0 mm/hr 0.00 in0.0 mm
07:02 AM 33.1°F0.6°C 31.3°F-0.4°C 93% Calm Calm -- 25.13 in851.0 mb 0.00 in0.0 mm 0.00 in/hr0.0 mm/hr 0.00 in0.0 mm
06:57 AM 32.9°F0.5°C 31.1°F-0.5°C 93% Calm Calm -- 25.13 in851.0 mb 0.00 in0.0 mm 0.00 in/hr0.0 mm/hr 0.00 in0.0 mm
06:52 AM 32.9°F0.5°C 31.1°F-0.5°C 93% Calm Calm -- 25.13 in851.0 mb 0.00 in0.0 mm 0.00 in/hr0.0 mm/hr 0.00 in0.0 mm
06:47 AM 32.9°F0.5°C 31.1°F-0.5°C 93% Calm Calm -- 25.13 in851.0 mb 0.00 in0.0 mm 0.00 in/hr0.0 mm/hr 0.00 in0.0 mm
06:42 AM 32.9°F0.5°C 31.1°F-0.5°C 93% Calm Calm -- 25.13 in851.0 mb 0.00 in0.0 mm 0.00 in/hr0.0 mm/hr 0.00 in0.0 mm
06:37 AM 32.9°F0.5°C 31.1°F-0.5°C 93% Calm Calm -- 25.13 in851.0 mb 0.00 in0.0 mm 0.00 in/hr0.0 mm/hr 0.00 in0.0 mm
06:32 AM 32.9°F0.5°C 31.3°F-0.4°C 94% Calm Calm -- 25.13 in851.0 mb 0.00 in0.0 mm 0.00 in/hr0.0 mm/hr 0.00 in0.0 mm
06:27 AM 32.7°F0.4°C 31.1°F-0.5°C 94% Calm Calm -- 25.13 in851.0 mb 0.00 in0.0 mm 0.00 in/hr0.0 mm/hr 0.00 in0.0 mm
06:22 AM 32.7°F0.4°C 31.1°F-0.5°C 94% Calm Calm -- 25.10 in850.0 mb 0.00 in0.0 mm 0.00 in/hr0.0 mm/hr 0.00 in0.0 mm
06:17 AM 32.7°F0.4°C 31.1°F-0.5°C 94% Calm Calm -- 25.10 in850.0 mb 0.00 in0.0 mm 0.00 in/hr0.0 mm/hr 0.00 in0.0 mm
06:12 AM 32.7°F0.4°C 31.1°F-0.5°C 94% Calm Calm -- 25.10 in850.0 mb 0.00 in0.0 mm 0.00 in/hr0.0 mm/hr 0.00 in0.0 mm
06:07 AM 32.9°F0.5°C 31.3°F-0.4°C 94% Calm Calm -- 25.10 in850.0 mb 0.00 in0.0 mm 0.00 in/hr0.0 mm/hr 0.00 in0.0 mm
06:02 AM 32.9°F0.5°C 31.1°F-0.5°C 93% Calm Calm -- 25.10 in850.0 mb 0.00 in0.0 mm 0.00 in/hr0.0 mm/hr 0.00 in0.0 mm
05:57 AM 32.9°F0.5°C 31.3°F-0.4°C 94% Calm Calm -- 25.10 in850.0 mb 0.00 in0.0 mm 0.00 in/hr0.0 mm/hr 0.00 in0.0 mm
05:52 AM 32.9°F0.5°C 31.3°F-0.4°C 94% Calm Calm -- 25.10 in850.0 mb 0.00 in0.0 mm 0.00 in/hr0.0 mm/hr 0.00 in0.0 mm
05:47 AM 32.9°F0.5°C 31.3°F-0.4°C 94% Calm Calm -- 25.10 in850.0 mb 0.00 in0.0 mm 0.00 in/hr0.0 mm/hr 0.00 in0.0 mm
05:42 AM 32.7°F0.4°C 31.1°F-0.5°C 94% Calm Calm -- 25.10 in850.0 mb 0.00 in0.0 mm 0.00 in/hr0.0 mm/hr 0.00 in0.0 mm
05:37 AM 32.7°F0.4°C 31.1°F-0.5°C 94% Calm Calm -- 25.10 in850.0 mb 0.00 in0.0 mm 0.00 in/hr0.0 mm/hr 0.00 in0.0 mm
05:32 AM 32.7°F0.4°C 31.1°F-0.5°C 94% Calm Calm -- 25.10 in850.0 mb 0.00 in0.0 mm 0.00 in/hr0.0 mm/hr 0.00 in0.0 mm
05:27 AM 32.7°F0.4°C 31.1°F-0.5°C 94% Calm Calm -- 25.10 in850.0 mb 0.00 in0.0 mm 0.00 in/hr0.0 mm/hr 0.00 in0.0 mm
05:22 AM 32.7°F0.4°C 31.1°F-0.5°C 94% Calm Calm -- 25.10 in850.0 mb 0.00 in0.0 mm 0.00 in/hr0.0 mm/hr 0.00 in0.0 mm
05:17 AM 32.7°F0.4°C 31.1°F-0.5°C 94% Calm Calm -- 25.10 in850.0 mb 0.00 in0.0 mm 0.00 in/hr0.0 mm/hr 0.00 in0.0 mm
05:12 AM 32.7°F0.4°C 31.1°F-0.5°C 94% Calm Calm -- 25.10 in850.0 mb 0.00 in0.0 mm 0.00 in/hr0.0 mm/hr 0.00 in0.0 mm
05:07 AM 32.7°F0.4°C 31.1°F-0.5°C 94% Calm Calm -- 25.10 in850.0 mb 0.00 in0.0 mm 0.00 in/hr0.0 mm/hr 0.00 in0.0 mm
05:02 AM 32.7°F0.4°C 31.1°F-0.5°C 94% Calm Calm -- 25.10 in850.0 mb 0.00 in0.0 mm 0.00 in/hr0.0 mm/hr 0.00 in0.0 mm
04:57 AM 32.7°F0.4°C 31.1°F-0.5°C 94% Calm Calm -- 25.10 in850.0 mb 0.00 in0.0 mm 0.00 in/hr0.0 mm/hr 0.00 in0.0 mm
04:52 AM 32.9°F0.5°C 31.3°F-0.4°C 94% Calm Calm -- 25.10 in850.0 mb 0.00 in0.0 mm 0.00 in/hr0.0 mm/hr 0.00 in0.0 mm
04:47 AM 32.9°F0.5°C 31.3°F-0.4°C 94% Calm Calm -- 25.10 in850.0 mb 0.00 in0.0 mm 0.00 in/hr0.0 mm/hr 0.00 in0.0 mm
04:42 AM 32.9°F0.5°C 31.3°F-0.4°C 94% Calm Calm -- 25.10 in850.0 mb 0.00 in0.0 mm 0.00 in/hr0.0 mm/hr 0.00 in0.0 mm
04:37 AM 32.9°F0.5°C 31.3°F-0.4°C 94% Calm Calm -- 25.10 in850.0 mb 0.00 in0.0 mm 0.00 in/hr0.0 mm/hr 0.00 in0.0 mm
04:32 AM 32.9°F0.5°C 31.3°F-0.4°C 94% Calm Calm -- 25.10 in850.0 mb 0.00 in0.0 mm 0.00 in/hr0.0 mm/hr 0.00 in0.0 mm
04:27 AM 32.9°F0.5°C 31.3°F-0.4°C 94% Calm Calm -- 25.10 in850.0 mb 0.00 in0.0 mm 0.00 in/hr0.0 mm/hr 0.00 in0.0 mm
04:22 AM 32.9°F0.5°C 31.3°F-0.4°C 94% Calm Calm -- 25.10 in850.0 mb 0.00 in0.0 mm 0.00 in/hr0.0 mm/hr 0.00 in0.0 mm
04:17 AM 32.9°F0.5°C 31.3°F-0.4°C 94% Calm Calm -- 25.10 in850.0 mb 0.00 in0.0 mm 0.00 in/hr0.0 mm/hr 0.00 in0.0 mm
04:12 AM 33.1°F0.6°C 31.5°F-0.3°C 94% Calm Calm -- 25.10 in850.0 mb 0.00 in0.0 mm 0.00 in/hr0.0 mm/hr 0.00 in0.0 mm
04:07 AM 33.1°F0.6°C 31.5°F-0.3°C 94% Calm Calm -- 25.10 in850.0 mb 0.00 in0.0 mm 0.00 in/hr0.0 mm/hr 0.00 in0.0 mm
04:02 AM 33.1°F0.6°C 31.5°F-0.3°C 94% 1.0 mph WSW1.6 kmh WSW 3.1 mph5.0 kmh 25.10 in850.0 mb 0.00 in0.0 mm 0.00 in/hr0.0 mm/hr 0.00 in0.0 mm
03:57 AM 33.1°F0.6°C 31.5°F-0.3°C 94% Calm Calm 3.1 mph5.0 kmh 25.10 in850.0 mb 0.00 in0.0 mm 0.00 in/hr0.0 mm/hr 0.00 in0.0 mm
03:52 AM 33.1°F0.6°C 31.5°F-0.3°C 94% Calm Calm -- 25.10 in850.0 mb 0.00 in0.0 mm 0.00 in/hr0.0 mm/hr 0.00 in0.0 mm
03:47 AM 33.3°F0.7°C 31.6°F-0.2°C 94% Calm Calm -- 25.10 in850.0 mb 0.00 in0.0 mm 0.00 in/hr0.0 mm/hr 0.00 in0.0 mm
03:42 AM 33.3°F0.7°C 31.6°F-0.2°C 94% Calm Calm -- 25.10 in850.0 mb 0.00 in0.0 mm 0.00 in/hr0.0 mm/hr 0.00 in0.0 mm
03:37 AM 33.4°F0.8°C 31.8°F-0.1°C 94% Calm Calm -- 25.10 in850.0 mb 0.00 in0.0 mm 0.00 in/hr0.0 mm/hr 0.00 in0.0 mm
03:32 AM 33.4°F0.8°C 31.8°F-0.1°C 94% Calm Calm -- 25.10 in850.0 mb 0.00 in0.0 mm 0.00 in/hr0.0 mm/hr 0.00 in0.0 mm
03:27 AM 33.6°F0.9°C 32.0°F0.0°C 94% Calm Calm -- 25.10 in850.0 mb 0.00 in0.0 mm 0.00 in/hr0.0 mm/hr 0.00 in0.0 mm
03:22 AM 33.6°F0.9°C 32.0°F0.0°C 94% Calm Calm -- 25.10 in850.0 mb 0.00 in0.0 mm 0.00 in/hr0.0 mm/hr 0.00 in0.0 mm
03:17 AM 33.6°F0.9°C 32.0°F0.0°C 94% Calm Calm -- 25.10 in850.0 mb 0.00 in0.0 mm 0.00 in/hr0.0 mm/hr 0.00 in0.0 mm
03:12 AM 33.8°F1.0°C 32.2°F0.1°C 94% Calm Calm -- 25.10 in850.0 mb 0.00 in0.0 mm 0.00 in/hr0.0 mm/hr 0.00 in0.0 mm
03:07 AM 33.8°F1.0°C 32.2°F0.1°C 94% Calm Calm -- 25.10 in850.0 mb 0.00 in0.0 mm 0.00 in/hr0.0 mm/hr 0.00 in0.0 mm
03:02 AM 33.8°F1.0°C 32.2°F0.1°C 94% Calm Calm -- 25.10 in850.0 mb 0.00 in0.0 mm 0.00 in/hr0.0 mm/hr 0.00 in0.0 mm
02:57 AM 33.8°F1.0°C 32.2°F0.1°C 94% Calm Calm -- 25.10 in850.0 mb 0.00 in0.0 mm 0.00 in/hr0.0 mm/hr 0.00 in0.0 mm
02:52 AM 33.8°F1.0°C 32.2°F0.1°C 94% Calm Calm 3.1 mph5.0 kmh 25.10 in850.0 mb 0.00 in0.0 mm 0.00 in/hr0.0 mm/hr 0.00 in0.0 mm
02:47 AM 33.8°F1.0°C 32.2°F0.1°C 94% Calm Calm 2.7 mph4.3 kmh 25.10 in850.0 mb 0.00 in0.0 mm 0.00 in/hr0.0 mm/hr 0.00 in0.0 mm
02:42 AM 33.8°F1.0°C 32.2°F0.1°C 94% Calm Calm 3.1 mph5.0 kmh 25.10 in850.0 mb 0.00 in0.0 mm 0.00 in/hr0.0 mm/hr 0.00 in0.0 mm
02:37 AM 34.0°F1.1°C 32.4°F0.2°C 94% 1.0 mph WSW1.6 kmh WSW 3.1 mph5.0 kmh 25.10 in850.0 mb 0.00 in0.0 mm 0.00 in/hr0.0 mm/hr 0.00 in0.0 mm
02:32 AM 34.0°F1.1°C 32.4°F0.2°C 94% 1.0 mph WSW1.6 kmh WSW 3.6 mph5.8 kmh 25.10 in850.0 mb 0.00 in0.0 mm 0.00 in/hr0.0 mm/hr 0.00 in0.0 mm
02:27 AM 34.0°F1.1°C 32.4°F0.2°C 94% 2.0 mph WSW3.2 kmh WSW 4.0 mph6.4 kmh 25.10 in850.0 mb 0.00 in0.0 mm 0.00 in/hr0.0 mm/hr 0.00 in0.0 mm
02:22 AM 34.0°F1.1°C 32.4°F0.2°C 94% 2.0 mph WSW3.2 kmh WSW 4.5 mph7.2 kmh 25.07 in849.0 mb 0.00 in0.0 mm 0.00 in/hr0.0 mm/hr 0.00 in0.0 mm
02:17 AM 34.0°F1.1°C 32.4°F0.2°C 94% 3.0 mph WSW4.8 kmh WSW 4.5 mph7.2 kmh 25.07 in849.0 mb 0.00 in0.0 mm 0.00 in/hr0.0 mm/hr 0.00 in0.0 mm
02:12 AM 34.0°F1.1°C 32.4°F0.2°C 94% 4.0 mph WSW6.4 kmh WSW 5.4 mph8.7 kmh 25.07 in849.0 mb 0.00 in0.0 mm 0.00 in/hr0.0 mm/hr 0.00 in0.0 mm
02:07 AM 34.0°F1.1°C 32.4°F0.2°C 94% 3.0 mph WSW4.8 kmh WSW 5.8 mph9.3 kmh 25.07 in849.0 mb 0.00 in0.0 mm 0.00 in/hr0.0 mm/hr 0.00 in0.0 mm
02:02 AM 34.2°F1.2°C 32.5°F0.3°C 94% 3.0 mph WSW4.8 kmh WSW 4.5 mph7.2 kmh 25.07 in849.0 mb 0.00 in0.0 mm 0.00 in/hr0.0 mm/hr 0.00 in0.0 mm
01:57 AM 34.2°F1.2°C 32.5°F0.3°C 94% 3.0 mph WSW4.8 kmh WSW 6.3 mph10.1 kmh 25.07 in849.0 mb 0.00 in0.0 mm 0.00 in/hr0.0 mm/hr 0.00 in0.0 mm
01:52 AM 34.2°F1.2°C 32.5°F0.3°C 94% 4.0 mph WSW6.4 kmh WSW 5.4 mph8.7 kmh 25.07 in849.0 mb 0.00 in0.0 mm 0.00 in/hr0.0 mm/hr 0.00 in0.0 mm
01:47 AM 34.2°F1.2°C 32.5°F0.3°C 94% 4.0 mph WSW6.4 kmh WSW 5.4 mph8.7 kmh 25.07 in849.0 mb 0.00 in0.0 mm 0.00 in/hr0.0 mm/hr 0.00 in0.0 mm
01:42 AM 34.3°F1.3°C 32.7°F0.4°C 94% 4.0 mph WSW6.4 kmh WSW 6.7 mph10.8 kmh 25.07 in849.0 mb 0.00 in0.0 mm 0.00 in/hr0.0 mm/hr 0.00 in0.0 mm
01:37 AM 34.3°F1.3°C 32.7°F0.4°C 94% 4.0 mph WSW6.4 kmh WSW 6.7 mph10.8 kmh 25.07 in849.0 mb 0.00 in0.0 mm 0.00 in/hr0.0 mm/hr 0.00 in0.0 mm
01:32 AM 34.3°F1.3°C 32.7°F0.4°C 94% 5.0 mph WSW8.0 kmh WSW 7.4 mph11.9 kmh 25.07 in849.0 mb 0.00 in0.0 mm 0.00 in/hr0.0 mm/hr 0.00 in0.0 mm
01:27 AM 34.3°F1.3°C 32.7°F0.4°C 94% 5.0 mph WSW8.0 kmh WSW 6.9 mph11.1 kmh 25.07 in849.0 mb 0.00 in0.0 mm 0.00 in/hr0.0 mm/hr 0.00 in0.0 mm
01:22 AM 34.3°F1.3°C 32.7°F0.4°C 94% 5.0 mph WSW8.0 kmh WSW 6.9 mph11.1 kmh 25.07 in849.0 mb 0.00 in0.0 mm 0.00 in/hr0.0 mm/hr 0.00 in0.0 mm
01:17 AM 34.5°F1.4°C 32.9°F0.5°C 94% 5.0 mph WSW8.0 kmh WSW 7.4 mph11.9 kmh 25.07 in849.0 mb 0.00 in0.0 mm 0.00 in/hr0.0 mm/hr 0.00 in0.0 mm
01:12 AM 34.5°F1.4°C 33.3°F0.7°C 95% 6.0 mph WSW9.7 kmh WSW 7.4 mph11.9 kmh 25.07 in849.0 mb 0.00 in0.0 mm 0.00 in/hr0.0 mm/hr 0.00 in0.0 mm
01:07 AM 34.7°F1.5°C 33.1°F0.6°C 94% 6.0 mph SW9.7 kmh SW 8.7 mph14.0 kmh 25.07 in849.0 mb 0.00 in0.0 mm 0.00 in/hr0.0 mm/hr 0.00 in0.0 mm
01:02 AM 34.9°F1.6°C 33.3°F0.7°C 94% 6.0 mph WSW9.7 kmh WSW 9.2 mph14.8 kmh 25.07 in849.0 mb 0.00 in0.0 mm 0.00 in/hr0.0 mm/hr 0.00 in0.0 mm
12:57 AM 35.2°F1.8°C 34.0°F1.1°C 95% 4.0 mph WSW6.4 kmh WSW 6.9 mph11.1 kmh 25.07 in849.0 mb 0.00 in0.0 mm 0.00 in/hr0.0 mm/hr 0.00 in0.0 mm
12:52 AM 35.4°F1.9°C 34.2°F1.2°C 95% 4.0 mph SW6.4 kmh SW 5.8 mph9.3 kmh 25.07 in849.0 mb 0.00 in0.0 mm 0.00 in/hr0.0 mm/hr 0.00 in0.0 mm
12:47 AM 35.4°F1.9°C 34.2°F1.2°C 95% 5.0 mph SW8.0 kmh SW 6.9 mph11.1 kmh 25.07 in849.0 mb 0.00 in0.0 mm 0.00 in/hr0.0 mm/hr 0.00 in0.0 mm
12:42 AM 35.4°F1.9°C 34.2°F1.2°C 95% 5.0 mph SW8.0 kmh SW 7.4 mph11.9 kmh 25.07 in849.0 mb 0.00 in0.0 mm 0.00 in/hr0.0 mm/hr 0.00 in0.0 mm
12:37 AM 35.4°F1.9°C 34.2°F1.2°C 95% 5.0 mph WSW8.0 kmh WSW 7.4 mph11.9 kmh 25.07 in849.0 mb 0.00 in0.0 mm 0.00 in/hr0.0 mm/hr 0.00 in0.0 mm
12:32 AM 35.6°F2.0°C 34.5°F1.4°C 96% 5.0 mph WSW8.0 kmh WSW 7.8 mph12.6 kmh 25.07 in849.0 mb 0.00 in0.0 mm 0.00 in/hr0.0 mm/hr 0.00 in0.0 mm
12:27 AM 35.6°F2.0°C 34.5°F1.4°C 96% 5.0 mph SW8.0 kmh SW 8.7 mph14.0 kmh 25.07 in849.0 mb 0.00 in0.0 mm 0.00 in/hr0.0 mm/hr 0.00 in0.0 mm
12:22 AM 35.6°F2.0°C 34.5°F1.4°C 96% 5.0 mph SW8.0 kmh SW 7.8 mph12.6 kmh 25.07 in849.0 mb 0.00 in0.0 mm 0.00 in/hr0.0 mm/hr 0.00 in0.0 mm
12:17 AM 35.8°F2.1°C 34.7°F1.5°C 96% 5.0 mph WSW8.0 kmh WSW 6.7 mph10.8 kmh 25.07 in849.0 mb 0.00 in0.0 mm 0.00 in/hr0.0 mm/hr 0.00 in0.0 mm
12:12 AM 35.8°F2.1°C 34.7°F1.5°C 96% 5.0 mph WSW8.0 kmh WSW 6.7 mph10.8 kmh 25.07 in849.0 mb 0.00 in0.0 mm 0.00 in/hr0.0 mm/hr 0.00 in0.0 mm
12:07 AM 36.0°F2.2°C 34.9°F1.6°C 96% 4.0 mph WSW6.4 kmh WSW 6.7 mph10.8 kmh 25.07 in849.0 mb 0.00 in0.0 mm 0.00 in/hr0.0 mm/hr 0.00 in0.0 mm
12:01 AM 36.0°F2.2°C 34.9°F1.6°C 96% 4.0 mph WSW6.4 kmh WSW 7.4 mph11.9 kmh 25.07 in849.0 mb 0.00 in0.0 mm 0.00 in/hr0.0 mm/hr 0.00 in0.0 mm